Time;durP1;ratioP1;P1;durP2;ratioP2;P2;SDS_P1;SDS_P2;PMS_P1;PMS_P2;Temp;Humidity;BMP_temperature;BMP_pressure;BME280_temperature;BME280_humidity;BME280_pressure;Samples;Min_cycle;Max_cycle;Signal;HPM_P1;HPM_P2
2023/08/20 00:01:26;;;;;;;18.50;13.40;;;;;;;-128.00;-1.00;-1.00;105476;1254;1003655;-80
2023/08/20 00:03:53;;;;;;;23.50;14.10;;;;;;;-128.00;-1.00;-1.00;105489;1253;1003975;-80
2023/08/20 00:06:20;;;;;;;16.90;13.20;;;;;;;-128.00;-1.00;-1.00;105555;1252;1004669;-80
2023/08/20 00:08:47;;;;;;;18.50;13.90;;;;;;;-128.00;-1.00;-1.00;105412;1254;1004107;-81
2023/08/20 00:11:14;;;;;;;20.90;15.10;;;;;;;-128.00;-1.00;-1.00;105547;1253;1004025;-80
2023/08/20 00:13:41;;;;;;;18.80;14.20;;;;;;;-128.00;-1.00;-1.00;105569;1253;1003864;-80
2023/08/20 00:16:08;;;;;;;19.80;14.90;;;;;;;-128.00;-1.00;-1.00;105536;1253;1004029;-81
2023/08/20 00:18:35;;;;;;;21.40;15.30;;;;;;;-128.00;-1.00;-1.00;105411;1254;1003312;-81
2023/08/20 00:21:02;;;;;;;18.70;15.40;;;;;;;-128.00;-1.00;-1.00;105507;1253;1004396;-81
2023/08/20 00:23:29;;;;;;;19.50;15.90;;;;;;;-128.00;-1.00;-1.00;105491;1254;1003610;-81
2023/08/20 00:25:56;;;;;;;22.60;17.00;;;;;;;-128.00;-1.00;-1.00;105536;1254;1004965;-81
2023/08/20 00:28:22;;;;;;;21.10;17.10;;;;;;;-128.00;-1.00;-1.00;105496;1254;1004174;-81
2023/08/20 00:30:49;;;;;;;19.60;16.30;;;;;;;-128.00;-1.00;-1.00;105499;1254;1004096;-81
2023/08/20 00:33:17;;;;;;;27.30;16.40;;;;;;;-128.00;-1.00;-1.00;105510;1256;1004334;-81
2023/08/20 00:35:43;;;;;;;18.50;16.00;;;;;;;-128.00;-1.00;-1.00;105465;1253;1003516;-81
2023/08/20 00:38:10;;;;;;;18.70;16.70;;;;;;;-128.00;-1.00;-1.00;105495;1254;1003999;-81
2023/08/20 00:40:36;;;;;;;24.00;16.10;;;;;;;-128.00;-1.00;-1.00;105486;1253;1004312;-81
2023/08/20 00:43:03;;;;;;;18.60;16.40;;;;;;;-128.00;-1.00;-1.00;105505;1255;1004400;-81
2023/08/20 00:45:29;;;;;;;22.10;13.40;;;;;;;-128.00;-1.00;-1.00;105463;1253;1005291;-81
2023/08/20 00:47:56;;;;;;;23.20;16.00;;;;;;;-128.00;-1.00;-1.00;105390;1255;1004065;-80
2023/08/20 00:50:22;;;;;;;27.20;17.00;;;;;;;-128.00;-1.00;-1.00;105526;1254;1003840;-80
2023/08/20 00:52:49;;;;;;;24.70;16.40;;;;;;;-128.00;-1.00;-1.00;105360;1254;1004486;-80
2023/08/20 00:55:15;;;;;;;22.60;17.00;;;;;;;-128.00;-1.00;-1.00;105422;1254;1004827;-81
2023/08/20 00:57:42;;;;;;;23.30;17.60;;;;;;;-128.00;-1.00;-1.00;105482;1253;1004494;-80
2023/08/20 01:00:10;;;;;;;21.70;15.50;;;;;;;-128.00;-1.00;-1.00;105401;1255;1003873;-81
2023/08/20 01:02:37;;;;;;;21.60;16.90;;;;;;;-128.00;-1.00;-1.00;105393;1252;1004524;-80
2023/08/20 01:05:06;;;;;;;23.80;15.80;;;;;;;-128.00;-1.00;-1.00;105486;1256;1003697;-80
2023/08/20 01:07:38;;;;;;;22.30;17.20;;;;;;;-128.00;-1.00;-1.00;105394;1254;1046659;-80
2023/08/20 01:10:08;;;;;;;19.40;15.30;;;;;;;-128.00;-1.00;-1.00;105512;1254;1046402;-81
2023/08/20 01:12:35;;;;;;;24.40;15.80;;;;;;;-128.00;-1.00;-1.00;105480;1253;1061226;-80
2023/08/20 01:15:01;;;;;;;20.40;15.80;;;;;;;-128.00;-1.00;-1.00;105277;1254;1004942;-80
2023/08/20 01:17:29;;;;;;;21.90;15.90;;;;;;;-128.00;-1.00;-1.00;105502;1254;1003734;-80
2023/08/20 01:19:55;;;;;;;18.80;14.60;;;;;;;-128.00;-1.00;-1.00;105485;1253;1003818;-81
2023/08/20 01:22:31;;;;;;;18.10;14.80;;;;;;;-128.00;-1.00;-1.00;105503;1254;1003426;-80
2023/08/20 01:25:12;;;;;;;18.40;13.90;;;;;;;-128.00;-1.00;-1.00;105475;1254;1060570;-80
2023/08/20 01:27:48;;;;;;;19.60;13.40;;;;;;;-128.00;-1.00;-1.00;105483;1254;1057444;-80
2023/08/20 01:30:14;;;;;;;21.50;13.90;;;;;;;-128.00;-1.00;-1.00;105480;1253;1059392;-80
2023/08/20 01:32:44;;;;;;;21.90;13.60;;;;;;;-128.00;-1.00;-1.00;105514;1254;1003961;-80
2023/08/20 01:35:14;;;;;;;23.30;14.40;;;;;;;-128.00;-1.00;-1.00;105402;1254;1046993;-80
2023/08/20 01:37:40;;;;;;;18.10;14.80;;;;;;;-128.00;-1.00;-1.00;105504;1254;1061605;-80
2023/08/20 01:40:10;;;;;;;18.80;15.50;;;;;;;-128.00;-1.00;-1.00;105493;1254;1004538;-80
2023/08/20 01:42:37;;;;;;;22.10;14.90;;;;;;;-128.00;-1.00;-1.00;105506;1254;1059525;-80
2023/08/20 01:45:04;;;;;;;19.50;15.50;;;;;;;-128.00;-1.00;-1.00;105394;1253;1004409;-81
2023/08/20 01:47:31;;;;;;;19.10;14.30;;;;;;;-128.00;-1.00;-1.00;105502;1253;1004331;-80
2023/08/20 01:49:58;;;;;;;20.00;16.00;;;;;;;-128.00;-1.00;-1.00;105503;1254;1006202;-81
2023/08/20 01:52:25;;;;;;;22.60;16.20;;;;;;;-128.00;-1.00;-1.00;105504;1253;1004303;-81
2023/08/20 01:54:52;;;;;;;17.00;15.00;;;;;;;-128.00;-1.00;-1.00;105547;1254;1005113;-81
2023/08/20 01:57:19;;;;;;;20.60;15.10;;;;;;;-128.00;-1.00;-1.00;105478;1253;1004031;-80
2023/08/20 01:59:46;;;;;;;22.60;15.20;;;;;;;-128.00;-1.00;-1.00;105521;1254;1004668;-81
2023/08/20 02:02:13;;;;;;;17.90;15.90;;;;;;;-128.00;-1.00;-1.00;105471;1254;1005004;-81
2023/08/20 02:04:39;;;;;;;23.70;15.90;;;;;;;-128.00;-1.00;-1.00;105571;1253;1004269;-81
2023/08/20 02:07:06;;;;;;;21.50;15.90;;;;;;;-128.00;-1.00;-1.00;105396;1254;1004366;-81
2023/08/20 02:09:32;;;;;;;21.20;16.10;;;;;;;-128.00;-1.00;-1.00;105531;1253;1004456;-81
2023/08/20 02:11:59;;;;;;;17.10;15.10;;;;;;;-128.00;-1.00;-1.00;105502;1253;1004039;-81
2023/08/20 02:14:27;;;;;;;22.00;16.10;;;;;;;-128.00;-1.00;-1.00;105496;1253;1003828;-80
2023/08/20 02:16:53;;;;;;;21.20;15.50;;;;;;;-128.00;-1.00;-1.00;105508;1253;1003711;-81
2023/08/20 02:19:20;;;;;;;19.00;14.00;;;;;;;-128.00;-1.00;-1.00;105508;1253;1004343;-80
2023/08/20 02:21:46;;;;;;;19.10;14.50;;;;;;;-128.00;-1.00;-1.00;105511;1253;1005001;-81
2023/08/20 02:24:13;;;;;;;17.90;14.40;;;;;;;-128.00;-1.00;-1.00;105502;1254;1004152;-80
2023/08/20 02:26:39;;;;;;;20.60;15.10;;;;;;;-128.00;-1.00;-1.00;105411;1254;1004417;-80
2023/08/20 02:29:06;;;;;;;25.80;16.40;;;;;;;-128.00;-1.00;-1.00;105545;1254;1004238;-80
2023/08/20 02:31:33;;;;;;;20.80;15.30;;;;;;;-128.00;-1.00;-1.00;105508;1254;1004988;-80
2023/08/20 02:33:59;;;;;;;22.80;15.30;;;;;;;-128.00;-1.00;-1.00;105498;1253;1004480;-80
2023/08/20 02:36:26;;;;;;;19.80;15.00;;;;;;;-128.00;-1.00;-1.00;105534;1254;1004179;-80
2023/08/20 02:38:52;;;;;;;20.90;15.20;;;;;;;-128.00;-1.00;-1.00;105485;1253;1003912;-80
2023/08/20 02:41:19;;;;;;;20.80;14.30;;;;;;;-128.00;-1.00;-1.00;105526;1254;1003663;-80
2023/08/20 02:43:46;;;;;;;31.20;16.30;;;;;;;-128.00;-1.00;-1.00;105494;1253;1004219;-80
2023/08/20 02:46:12;;;;;;;18.50;14.90;;;;;;;-128.00;-1.00;-1.00;105497;1253;1004711;-80
2023/08/20 02:48:39;;;;;;;19.80;15.30;;;;;;;-128.00;-1.00;-1.00;105500;1253;1003815;-80
2023/08/20 02:51:05;;;;;;;20.10;16.50;;;;;;;-128.00;-1.00;-1.00;105492;1253;1004329;-80
2023/08/20 02:53:32;;;;;;;20.90;15.70;;;;;;;-128.00;-1.00;-1.00;105481;1254;1004588;-80
2023/08/20 02:55:58;;;;;;;21.60;15.00;;;;;;;-128.00;-1.00;-1.00;105395;1254;1004498;-80
2023/08/20 02:58:25;;;;;;;20.60;17.00;;;;;;;-128.00;-1.00;-1.00;105501;1253;1004097;-80
2023/08/20 03:00:51;;;;;;;17.90;14.80;;;;;;;-128.00;-1.00;-1.00;105517;1253;1003831;-80
2023/08/20 03:03:18;;;;;;;20.20;15.60;;;;;;;-128.00;-1.00;-1.00;105524;1253;1004613;-81
2023/08/20 03:05:44;;;;;;;22.00;16.40;;;;;;;-128.00;-1.00;-1.00;105538;1253;1004621;-80
2023/08/20 03:08:11;;;;;;;24.00;17.30;;;;;;;-128.00;-1.00;-1.00;105384;1255;1004820;-80
2023/08/20 03:10:37;;;;;;;22.00;16.70;;;;;;;-128.00;-1.00;-1.00;105528;1253;1005000;-80
2023/08/20 03:13:04;;;;;;;21.70;14.90;;;;;;;-128.00;-1.00;-1.00;105463;1253;1004067;-81
2023/08/20 03:15:30;;;;;;;19.00;14.80;;;;;;;-128.00;-1.00;-1.00;105514;1253;1004003;-80
2023/08/20 03:17:57;;;;;;;17.40;14.70;;;;;;;-128.00;-1.00;-1.00;105524;1253;1005245;-80
2023/08/20 03:20:23;;;;;;;16.30;14.60;;;;;;;-128.00;-1.00;-1.00;105363;1254;1004095;-80
2023/08/20 03:22:50;;;;;;;17.10;14.80;;;;;;;-128.00;-1.00;-1.00;105338;1255;1005230;-81
2023/08/20 03:25:16;;;;;;;20.00;15.50;;;;;;;-128.00;-1.00;-1.00;105523;1252;1003858;-81
2023/08/20 03:27:44;;;;;;;17.20;14.90;;;;;;;-128.00;-1.00;-1.00;105528;1254;1004139;-81
2023/08/20 03:30:11;;;;;;;16.80;15.00;;;;;;;-128.00;-1.00;-1.00;105563;1253;1005147;-81
2023/08/20 03:32:37;;;;;;;17.40;14.10;;;;;;;-128.00;-1.00;-1.00;105524;1253;1004681;-81
2023/08/20 03:35:04;;;;;;;23.80;17.00;;;;;;;-128.00;-1.00;-1.00;105358;1254;1005057;-81
2023/08/20 03:37:30;;;;;;;17.30;15.30;;;;;;;-128.00;-1.00;-1.00;105390;1253;1004026;-81
2023/08/20 03:39:57;;;;;;;17.90;15.10;;;;;;;-128.00;-1.00;-1.00;105394;1254;1003826;-80
2023/08/20 03:42:23;;;;;;;21.50;16.40;;;;;;;-128.00;-1.00;-1.00;105398;1253;1003975;-81
2023/08/20 03:44:50;;;;;;;20.10;15.60;;;;;;;-128.00;-1.00;-1.00;105469;1253;1004847;-80
2023/08/20 03:47:20;;;;;;;20.50;15.20;;;;;;;-128.00;-1.00;-1.00;105502;1253;1003899;-81
2023/08/20 03:49:48;;;;;;;16.90;14.90;;;;;;;-128.00;-1.00;-1.00;105388;1253;1047630;-80
2023/08/20 03:52:14;;;;;;;18.00;15.10;;;;;;;-128.00;-1.00;-1.00;105509;1253;1003536;-81
2023/08/20 03:54:41;;;;;;;16.70;14.30;;;;;;;-128.00;-1.00;-1.00;105536;1253;1004470;-81
2023/08/20 03:57:07;;;;;;;14.30;12.40;;;;;;;-128.00;-1.00;-1.00;105483;1254;1003606;-80
2023/08/20 03:59:34;;;;;;;17.20;13.90;;;;;;;-128.00;-1.00;-1.00;105481;1253;1003968;-80
2023/08/20 04:02:00;;;;;;;16.70;13.90;;;;;;;-128.00;-1.00;-1.00;105511;1253;1004090;-80
2023/08/20 04:04:27;;;;;;;15.90;14.20;;;;;;;-128.00;-1.00;-1.00;105512;1254;1005096;-80
2023/08/20 04:06:54;;;;;;;20.40;15.60;;;;;;;-128.00;-1.00;-1.00;105542;1253;1003574;-80
2023/08/20 04:09:21;;;;;;;16.70;14.30;;;;;;;-128.00;-1.00;-1.00;105513;1254;1004247;-80
2023/08/20 04:11:48;;;;;;;20.40;15.60;;;;;;;-128.00;-1.00;-1.00;105380;1256;1004334;-80
2023/08/20 04:14:15;;;;;;;18.70;15.30;;;;;;;-128.00;-1.00;-1.00;105267;1253;1004402;-80
2023/08/20 04:16:42;;;;;;;18.00;15.00;;;;;;;-128.00;-1.00;-1.00;105541;1253;1004400;-80
2023/08/20 04:19:08;;;;;;;17.70;15.70;;;;;;;-128.00;-1.00;-1.00;105500;1254;1004732;-80
2023/08/20 04:21:35;;;;;;;16.10;14.40;;;;;;;-128.00;-1.00;-1.00;105391;1253;1004080;-80
2023/08/20 04:24:02;;;;;;;27.80;15.50;;;;;;;-128.00;-1.00;-1.00;105490;1253;1005007;-81
2023/08/20 04:26:29;;;;;;;15.20;13.70;;;;;;;-128.00;-1.00;-1.00;105265;1254;1004412;-80
2023/08/20 04:28:55;;;;;;;17.90;13.70;;;;;;;-128.00;-1.00;-1.00;105533;1253;1005372;-80
2023/08/20 04:31:22;;;;;;;17.20;14.30;;;;;;;-128.00;-1.00;-1.00;105511;1253;1004182;-80
2023/08/20 04:33:48;;;;;;;17.70;14.80;;;;;;;-128.00;-1.00;-1.00;105509;1253;1004658;-80
2023/08/20 04:36:15;;;;;;;15.70;13.70;;;;;;;-128.00;-1.00;-1.00;105485;1253;1004024;-80
2023/08/20 04:38:41;;;;;;;16.00;13.60;;;;;;;-128.00;-1.00;-1.00;105521;1253;1004348;-80
2023/08/20 04:41:08;;;;;;;20.40;13.30;;;;;;;-128.00;-1.00;-1.00;105578;1253;1004770;-81
2023/08/20 04:43:34;;;;;;;18.30;14.50;;;;;;;-128.00;-1.00;-1.00;105537;1254;1004613;-80
2023/08/20 04:46:01;;;;;;;16.20;13.50;;;;;;;-128.00;-1.00;-1.00;105494;1253;1003737;-81
2023/08/20 04:48:27;;;;;;;15.50;13.80;;;;;;;-128.00;-1.00;-1.00;105494;1253;1004819;-81
2023/08/20 04:50:54;;;;;;;18.80;15.40;;;;;;;-128.00;-1.00;-1.00;105483;1254;1004432;-80
2023/08/20 04:53:20;;;;;;;21.10;17.00;;;;;;;-128.00;-1.00;-1.00;105399;1253;1004251;-80
2023/08/20 04:55:47;;;;;;;24.20;18.20;;;;;;;-128.00;-1.00;-1.00;105534;1253;1004218;-81
2023/08/20 04:58:13;;;;;;;31.50;22.60;;;;;;;-128.00;-1.00;-1.00;105513;1252;1003919;-81
2023/08/20 05:00:40;;;;;;;41.10;27.70;;;;;;;-128.00;-1.00;-1.00;105521;1253;1003703;-80
2023/08/20 05:03:06;;;;;;;40.70;29.90;;;;;;;-128.00;-1.00;-1.00;105545;1253;1004500;-81
2023/08/20 05:05:33;;;;;;;59.00;35.60;;;;;;;-128.00;-1.00;-1.00;105504;1253;1003785;-81
2023/08/20 05:07:59;;;;;;;52.60;32.70;;;;;;;-128.00;-1.00;-1.00;105544;1253;1003669;-81
2023/08/20 05:10:26;;;;;;;40.00;27.60;;;;;;;-128.00;-1.00;-1.00;105398;1253;1004238;-81
2023/08/20 05:12:52;;;;;;;30.50;23.40;;;;;;;-128.00;-1.00;-1.00;105504;1252;1003492;-81
2023/08/20 05:15:19;;;;;;;22.20;18.80;;;;;;;-128.00;-1.00;-1.00;105504;1253;1003286;-80
2023/08/20 05:17:45;;;;;;;19.90;17.90;;;;;;;-128.00;-1.00;-1.00;105541;1253;1004707;-80
2023/08/20 05:20:12;;;;;;;21.10;18.30;;;;;;;-128.00;-1.00;-1.00;105501;1253;1003803;-81
2023/08/20 05:22:38;;;;;;;21.50;18.20;;;;;;;-128.00;-1.00;-1.00;105511;1253;1004702;-81
2023/08/20 05:25:05;;;;;;;27.50;21.40;;;;;;;-128.00;-1.00;-1.00;105499;1253;1004396;-81
2023/08/20 05:27:31;;;;;;;23.40;20.90;;;;;;;-128.00;-1.00;-1.00;105420;1253;1004695;-81
2023/08/20 05:29:58;;;;;;;26.90;24.00;;;;;;;-128.00;-1.00;-1.00;105524;1253;1003792;-81
2023/08/20 05:32:24;;;;;;;41.60;29.70;;;;;;;-128.00;-1.00;-1.00;105536;1253;1003850;-81
2023/08/20 05:34:51;;;;;;;36.80;30.40;;;;;;;-128.00;-1.00;-1.00;105506;1253;1004291;-81
2023/08/20 05:37:17;;;;;;;46.00;36.20;;;;;;;-128.00;-1.00;-1.00;105536;1252;1004189;-81
2023/08/20 05:39:44;;;;;;;44.30;34.50;;;;;;;-128.00;-1.00;-1.00;105558;1253;1004401;-81
2023/08/20 05:42:10;;;;;;;36.10;27.40;;;;;;;-128.00;-1.00;-1.00;105547;1253;1005074;-81
2023/08/20 05:44:37;;;;;;;24.90;20.70;;;;;;;-128.00;-1.00;-1.00;105268;1253;1004505;-81
2023/08/20 05:47:05;;;;;;;20.70;18.30;;;;;;;-128.00;-1.00;-1.00;105509;1253;1004180;-80
2023/08/20 05:49:31;;;;;;;25.70;18.70;;;;;;;-128.00;-1.00;-1.00;105531;1253;1004189;-80
2023/08/20 05:51:58;;;;;;;17.30;14.30;;;;;;;-128.00;-1.00;-1.00;105519;1253;1004596;-82
2023/08/20 05:54:24;;;;;;;18.00;15.70;;;;;;;-128.00;-1.00;-1.00;105393;1253;1004527;-81
2023/08/20 05:56:51;;;;;;;23.60;18.60;;;;;;;-128.00;-1.00;-1.00;105529;1253;1004712;-81
2023/08/20 05:59:17;;;;;;;26.40;19.70;;;;;;;-128.00;-1.00;-1.00;105402;1253;1005078;-82
2023/08/20 06:01:44;;;;;;;20.00;16.70;;;;;;;-128.00;-1.00;-1.00;105529;1252;1004470;-83
2023/08/20 06:04:11;;;;;;;17.00;14.80;;;;;;;-128.00;-1.00;-1.00;105401;1253;1004773;-81
2023/08/20 06:06:37;;;;;;;16.30;12.70;;;;;;;-128.00;-1.00;-1.00;105526;1253;1004333;-81
2023/08/20 06:09:04;;;;;;;15.50;13.90;;;;;;;-128.00;-1.00;-1.00;105517;1253;1004774;-81
2023/08/20 06:11:30;;;;;;;17.20;13.10;;;;;;;-128.00;-1.00;-1.00;105552;1253;1004314;-81
2023/08/20 06:13:57;;;;;;;16.40;12.50;;;;;;;-128.00;-1.00;-1.00;105511;1252;1004391;-81
2023/08/20 06:16:23;;;;;;;17.20;12.30;;;;;;;-128.00;-1.00;-1.00;105511;1253;1004009;-82
2023/08/20 06:18:49;;;;;;;13.30;11.50;;;;;;;-128.00;-1.00;-1.00;105544;1253;1004827;-82
2023/08/20 06:21:16;;;;;;;14.00;12.40;;;;;;;-128.00;-1.00;-1.00;105527;1252;1004108;-81
2023/08/20 06:23:42;;;;;;;13.60;12.10;;;;;;;-128.00;-1.00;-1.00;105521;1253;1004141;-81
2023/08/20 06:26:09;;;;;;;14.70;11.50;;;;;;;-128.00;-1.00;-1.00;105476;1252;1004423;-81
2023/08/20 06:28:35;;;;;;;13.40;11.80;;;;;;;-128.00;-1.00;-1.00;105542;1253;1004388;-81
2023/08/20 06:31:02;;;;;;;19.80;12.00;;;;;;;-128.00;-1.00;-1.00;105519;1254;1004063;-81
2023/08/20 06:33:28;;;;;;;16.50;12.50;;;;;;;-128.00;-1.00;-1.00;105509;1253;1004839;-81
2023/08/20 06:35:55;;;;;;;14.40;13.00;;;;;;;-128.00;-1.00;-1.00;105536;1252;1003743;-81
2023/08/20 06:38:21;;;;;;;17.40;12.80;;;;;;;-128.00;-1.00;-1.00;105381;1254;1004344;-81
2023/08/20 06:40:48;;;;;;;14.10;12.00;;;;;;;-128.00;-1.00;-1.00;105508;1253;1004720;-82
2023/08/20 06:43:14;;;;;;;13.60;12.10;;;;;;;-128.00;-1.00;-1.00;105518;1254;1004267;-81
2023/08/20 06:45:41;;;;;;;14.10;12.10;;;;;;;-128.00;-1.00;-1.00;105508;1254;1004346;-81
2023/08/20 06:48:07;;;;;;;15.40;12.60;;;;;;;-128.00;-1.00;-1.00;105520;1252;1004716;-81
2023/08/20 06:50:34;;;;;;;15.10;11.80;;;;;;;-128.00;-1.00;-1.00;105667;1252;1004126;-81
2023/08/20 06:53:00;;;;;;;13.40;12.00;;;;;;;-128.00;-1.00;-1.00;105453;1254;1004817;-82
2023/08/20 06:55:27;;;;;;;17.40;11.60;;;;;;;-128.00;-1.00;-1.00;105506;1253;1004090;-81
2023/08/20 06:57:53;;;;;;;15.50;11.60;;;;;;;-128.00;-1.00;-1.00;105522;1253;1004883;-82
2023/08/20 07:00:20;;;;;;;12.40;10.40;;;;;;;-128.00;-1.00;-1.00;105359;1253;1004427;-82
2023/08/20 07:02:46;;;;;;;14.60;11.60;;;;;;;-128.00;-1.00;-1.00;105505;1253;1005338;-81
2023/08/20 07:05:14;;;;;;;12.90;11.50;;;;;;;-128.00;-1.00;-1.00;105520;1252;1004256;-81
2023/08/20 07:07:41;;;;;;;13.70;9.80;;;;;;;-128.00;-1.00;-1.00;105526;1252;1004915;-81
2023/08/20 07:10:07;;;;;;;11.10;10.00;;;;;;;-128.00;-1.00;-1.00;105473;1253;1004262;-81
2023/08/20 07:12:34;;;;;;;11.40;10.30;;;;;;;-128.00;-1.00;-1.00;105524;1253;1004742;-81
2023/08/20 07:15:00;;;;;;;19.10;11.20;;;;;;;-128.00;-1.00;-1.00;105525;1253;1005254;-81
2023/08/20 07:17:27;;;;;;;10.20;8.80;;;;;;;-128.00;-1.00;-1.00;105552;1253;1004044;-81
2023/08/20 07:19:53;;;;;;;13.70;9.30;;;;;;;-128.00;-1.00;-1.00;105513;1253;1004368;-81
2023/08/20 07:22:20;;;;;;;11.70;9.40;;;;;;;-128.00;-1.00;-1.00;105517;1253;1003588;-81
2023/08/20 07:24:46;;;;;;;14.00;8.80;;;;;;;-128.00;-1.00;-1.00;105489;1253;1004250;-82
2023/08/20 07:27:13;;;;;;;10.40;9.30;;;;;;;-128.00;-1.00;-1.00;105517;1252;1004082;-82
2023/08/20 07:29:41;;;;;;;12.20;9.50;;;;;;;-128.00;-1.00;-1.00;105559;1253;1003820;-82
2023/08/20 07:32:07;;;;;;;11.70;8.90;;;;;;;-128.00;-1.00;-1.00;105521;1252;1005150;-82
2023/08/20 07:34:34;;;;;;;11.90;8.30;;;;;;;-128.00;-1.00;-1.00;105418;1253;1004129;-82
2023/08/20 07:37:01;;;;;;;10.50;8.80;;;;;;;-128.00;-1.00;-1.00;105403;1252;1004303;-82
2023/08/20 07:39:28;;;;;;;9.40;8.40;;;;;;;-128.00;-1.00;-1.00;105496;1253;1003527;-82
2023/08/20 07:41:54;;;;;;;9.20;8.30;;;;;;;-128.00;-1.00;-1.00;105532;1253;1003711;-81
2023/08/20 07:44:21;;;;;;;11.30;8.40;;;;;;;-128.00;-1.00;-1.00;105496;1253;1004816;-83
2023/08/20 07:46:47;;;;;;;10.70;7.80;;;;;;;-128.00;-1.00;-1.00;105524;1253;1003994;-82
2023/08/20 07:49:14;;;;;;;8.90;7.90;;;;;;;-128.00;-1.00;-1.00;105545;1253;1004808;-82
2023/08/20 07:51:40;;;;;;;9.70;7.70;;;;;;;-128.00;-1.00;-1.00;105534;1253;1003633;-83
2023/08/20 07:54:06;;;;;;;9.50;8.40;;;;;;;-128.00;-1.00;-1.00;105536;1253;1004333;-83
2023/08/20 07:56:33;;;;;;;8.10;7.30;;;;;;;-128.00;-1.00;-1.00;105516;1253;1003863;-84
2023/08/20 07:58:59;;;;;;;8.80;7.60;;;;;;;-128.00;-1.00;-1.00;105517;1253;1005398;-82
2023/08/20 08:01:26;;;;;;;11.50;7.50;;;;;;;-128.00;-1.00;-1.00;105490;1253;1004636;-83
2023/08/20 08:03:53;;;;;;;15.60;8.50;;;;;;;-128.00;-1.00;-1.00;105498;1253;1003825;-83
2023/08/20 08:06:21;;;;;;;9.60;7.50;;;;;;;-128.00;-1.00;-1.00;105534;1253;1003713;-82
2023/08/20 08:08:48;;;;;;;9.10;8.20;;;;;;;-128.00;-1.00;-1.00;105504;1254;1004957;-83
2023/08/20 08:11:14;;;;;;;8.10;7.40;;;;;;;-128.00;-1.00;-1.00;105518;1253;1004901;-82
2023/08/20 08:13:40;;;;;;;7.60;6.90;;;;;;;-128.00;-1.00;-1.00;105489;1253;1004336;-82
2023/08/20 08:16:07;;;;;;;8.90;7.70;;;;;;;-128.00;-1.00;-1.00;105372;1253;1003944;-82
2023/08/20 08:18:33;;;;;;;7.60;6.40;;;;;;;-128.00;-1.00;-1.00;105518;1253;1004275;-83
2023/08/20 08:21:00;;;;;;;7.90;7.10;;;;;;;-128.00;-1.00;-1.00;105543;1252;1004407;-83
2023/08/20 08:23:26;;;;;;;10.60;7.10;;;;;;;-128.00;-1.00;-1.00;105563;1253;1004330;-83
2023/08/20 08:25:53;;;;;;;8.00;6.60;;;;;;;-128.00;-1.00;-1.00;105390;1253;1004452;-82
2023/08/20 08:28:19;;;;;;;7.70;6.50;;;;;;;-128.00;-1.00;-1.00;105506;1253;1004718;-82
2023/08/20 08:30:46;;;;;;;9.20;6.30;;;;;;;-128.00;-1.00;-1.00;105548;1253;1004171;-82
2023/08/20 08:33:12;;;;;;;7.40;6.60;;;;;;;-128.00;-1.00;-1.00;105567;1252;1004436;-82
2023/08/20 08:35:39;;;;;;;7.70;6.90;;;;;;;-128.00;-1.00;-1.00;105506;1253;1005031;-82
2023/08/20 08:38:05;;;;;;;7.10;6.00;;;;;;;-128.00;-1.00;-1.00;105527;1252;1004484;-83
2023/08/20 08:40:32;;;;;;;8.60;6.20;;;;;;;-128.00;-1.00;-1.00;105545;1253;1003870;-83
2023/08/20 08:42:58;;;;;;;7.40;6.20;;;;;;;-128.00;-1.00;-1.00;105400;1253;1004943;-83
2023/08/20 08:45:25;;;;;;;8.60;5.30;;;;;;;-128.00;-1.00;-1.00;105237;1253;1004464;-83
2023/08/20 08:47:51;;;;;;;5.90;5.20;;;;;;;-128.00;-1.00;-1.00;105271;1253;1004285;-83
2023/08/20 08:50:18;;;;;;;6.30;5.60;;;;;;;-128.00;-1.00;-1.00;105386;1252;1005271;-82
2023/08/20 08:52:44;;;;;;;9.70;5.50;;;;;;;-128.00;-1.00;-1.00;105497;1253;1003665;-83
2023/08/20 08:55:11;;;;;;;6.80;6.00;;;;;;;-128.00;-1.00;-1.00;105518;1253;1004695;-83
2023/08/20 08:57:38;;;;;;;7.10;5.10;;;;;;;-128.00;-1.00;-1.00;105524;1253;1005133;-83
2023/08/20 09:00:05;;;;;;;9.00;5.50;;;;;;;-128.00;-1.00;-1.00;105535;1254;1004010;-83
2023/08/20 09:02:31;;;;;;;6.40;5.50;;;;;;;-128.00;-1.00;-1.00;105508;1253;1004093;-83
2023/08/20 09:04:58;;;;;;;8.70;5.80;;;;;;;-128.00;-1.00;-1.00;105512;1253;1004571;-83
2023/08/20 09:07:24;;;;;;;8.60;6.00;;;;;;;-128.00;-1.00;-1.00;105559;1252;1004837;-83
2023/08/20 09:09:56;;;;;;;5.30;4.80;;;;;;;-128.00;-1.00;-1.00;105412;1253;1003417;-83
2023/08/20 09:12:23;;;;;;;5.00;4.60;;;;;;;-128.00;-1.00;-1.00;105421;1253;1059122;-83
2023/08/20 09:14:50;;;;;;;6.00;5.50;;;;;;;-128.00;-1.00;-1.00;105518;1253;1004647;-83
2023/08/20 09:17:17;;;;;;;;;;;;;;;-128.00;-1.00;-1.00;105400;1254;1004519;-83
2023/08/20 09:19:44;;;;;;;9.70;5.20;;;;;;;-128.00;-1.00;-1.00;105538;1253;1004393;-83
2023/08/20 09:22:14;;;;;;;;;;;;;;;-128.00;-1.00;-1.00;105252;1253;1004894;-83
2023/08/20 09:24:55;;;;;;;6.20;5.00;;;;;;;-128.00;-1.00;-1.00;105527;1253;1058220;-83
2023/08/20 09:27:21;;;;;;;8.40;5.60;;;;;;;-128.00;-1.00;-1.00;105522;1253;1059604;-83
2023/08/20 09:29:52;;;;;;;5.70;5.20;;;;;;;-128.00;-1.00;-1.00;105507;1253;1004651;-83
2023/08/20 09:32:20;;;;;;;8.00;5.40;;;;;;;-128.00;-1.00;-1.00;105407;1253;1046892;-83
2023/08/20 09:34:48;;;;;;;6.00;5.40;;;;;;;-128.00;-1.00;-1.00;105520;1253;1004535;-83
2023/08/20 09:37:16;;;;;;;7.50;5.30;;;;;;;-128.00;-1.00;-1.00;105398;1253;1058737;-83
2023/08/20 09:39:42;;;;;;;8.40;5.00;;;;;;;-128.00;-1.00;-1.00;105507;1254;1003913;-83
2023/08/20 09:42:09;;;;;;;6.80;5.40;;;;;;;-128.00;-1.00;-1.00;105526;1253;1004222;-83
2023/08/20 09:44:36;;;;;;;;;;;;;;;-128.00;-1.00;-1.00;105590;1254;1004647;-83
2023/08/20 09:47:14;;;;;;;5.80;5.30;;;;;;;-128.00;-1.00;-1.00;105528;1253;1005069;-83
2023/08/20 09:49:42;;;;;;;6.30;5.40;;;;;;;-128.00;-1.00;-1.00;105405;1253;1059297;-83
2023/08/20 09:52:10;;;;;;;6.90;5.40;;;;;;;-128.00;-1.00;-1.00;105520;1253;1003529;-83
2023/08/20 09:54:45;;;;;;;6.10;5.50;;;;;;;-128.00;-1.00;-1.00;105493;1253;1004917;-83
2023/08/20 09:57:35;;;;;;;6.30;5.70;;;;;;;-128.00;-1.00;-1.00;105527;1252;1046755;-84
2023/08/20 10:00:05;;;;;;;5.60;5.10;;;;;;;-128.00;-1.00;-1.00;105524;1253;1062501;-84
2023/08/20 10:02:32;;;;;;;5.30;4.80;;;;;;;-128.00;-1.00;-1.00;105530;1253;1057473;-83
2023/08/20 10:05:01;;;;;;;6.80;5.00;;;;;;;-128.00;-1.00;-1.00;105413;1253;1004811;-83
2023/08/20 10:07:31;;;;;;;5.40;4.90;;;;;;;-128.00;-1.00;-1.00;105509;1253;1043907;-83
2023/08/20 10:10:03;;;;;;;5.20;4.70;;;;;;;-128.00;-1.00;-1.00;105389;1252;1046141;-83
2023/08/20 10:12:30;;;;;;;6.30;4.80;;;;;;;-128.00;-1.00;-1.00;105565;1253;1061360;-84
2023/08/20 10:14:56;;;;;;;6.40;5.80;;;;;;;-128.00;-1.00;-1.00;105515;1254;1004767;-83
2023/08/20 10:17:23;;;;;;;6.30;5.40;;;;;;;-128.00;-1.00;-1.00;105405;1254;1004524;-83
2023/08/20 10:19:51;;;;;;;7.70;5.80;;;;;;;-128.00;-1.00;-1.00;105537;1253;1004822;-83
2023/08/20 10:22:18;;;;;;;8.20;5.80;;;;;;;-128.00;-1.00;-1.00;105487;1254;1004862;-82
2023/08/20 10:24:49;;;;;;;8.30;6.60;;;;;;;-128.00;-1.00;-1.00;105528;1253;1004350;-82
2023/08/20 10:27:31;;;;;;;9.20;5.60;;;;;;;-128.00;-1.00;-1.00;105518;1253;1058368;-83
2023/08/20 10:29:59;;;;;;;7.50;6.00;;;;;;;-128.00;-1.00;-1.00;105506;1252;1059946;-82
2023/08/20 10:32:46;;;;;;;7.50;6.10;;;;;;;-128.00;-1.00;-1.00;105515;1254;1004104;-82
2023/08/20 10:35:15;;;;;;;7.50;6.20;;;;;;;-128.00;-1.00;-1.00;105547;1253;1047344;-83
2023/08/20 10:38:12;;;;;;;6.50;5.90;;;;;;;-128.00;-1.00;-1.00;105543;1252;1061701;-82
2023/08/20 10:40:55;;;;;;;12.80;6.30;;;;;;;-128.00;-1.00;-1.00;105521;1252;1058005;-82
2023/08/20 10:43:25;;;;;;;8.90;6.50;;;;;;;-128.00;-1.00;-1.00;105515;1253;1059873;-82
2023/08/20 10:46:04;;;;;;;7.00;6.40;;;;;;;-128.00;-1.00;-1.00;105495;1252;1044155;-82
2023/08/20 10:48:34;;;;;;;7.40;6.60;;;;;;;-128.00;-1.00;-1.00;105530;1253;1046757;-82
2023/08/20 10:51:36;;;;;;;10.60;6.70;;;;;;;-128.00;-1.00;-1.00;105413;1253;1061488;-82
2023/08/20 10:54:07;;;;;;;7.30;6.50;;;;;;;-128.00;-1.00;-1.00;105345;1252;1058618;-82
2023/08/20 10:56:46;;;;;;;8.40;6.50;;;;;;;-128.00;-1.00;-1.00;105522;1253;1058908;-82
2023/08/20 10:59:23;;;;;;;10.20;7.00;;;;;;;-128.00;-1.00;-1.00;105530;1254;1045021;-82
2023/08/20 11:01:50;;;;;;;10.00;6.90;;;;;;;-128.00;-1.00;-1.00;105438;1253;1047415;-82
2023/08/20 11:04:18;;;;;;;10.40;8.20;;;;;;;-128.00;-1.00;-1.00;105436;1253;1004795;-82
2023/08/20 11:06:46;;;;;;;9.30;7.30;;;;;;;-128.00;-1.00;-1.00;105405;1254;1004483;-82
2023/08/20 11:09:13;;;;;;;9.90;7.10;;;;;;;-128.00;-1.00;-1.00;105438;1254;1003935;-82